sensor_id;sensor_type;location;lat;lon;timestamp;P1;durP1;ratioP1;P2;durP2;ratioP2
56657;SDS011;42530;52.240;19.354;2022-10-16T00:00:17;17.55;;;15.85;;
56657;SDS011;42530;52.240;19.354;2022-10-16T00:02:43;17.83;;;16.20;;
56657;SDS011;42530;52.240;19.354;2022-10-16T00:05:08;17.83;;;16.00;;
56657;SDS011;42530;52.240;19.354;2022-10-16T00:07:34;18.80;;;16.75;;
56657;SDS011;42530;52.240;19.354;2022-10-16T00:09:59;17.52;;;15.73;;
56657;SDS011;42530;52.240;19.354;2022-10-16T00:12:25;17.50;;;15.82;;
56657;SDS011;42530;52.240;19.354;2022-10-16T00:14:50;18.83;;;16.92;;
56657;SDS011;42530;52.240;19.354;2022-10-16T00:17:16;18.40;;;16.63;;
56657;SDS011;42530;52.240;19.354;2022-10-16T00:19:41;18.00;;;16.30;;
56657;SDS011;42530;52.240;19.354;2022-10-16T00:22:07;16.60;;;15.23;;
56657;SDS011;42530;52.240;19.354;2022-10-16T00:24:32;18.15;;;16.20;;
56657;SDS011;42530;52.240;19.354;2022-10-16T00:26:58;18.20;;;16.33;;
56657;SDS011;42530;52.240;19.354;2022-10-16T00:29:23;19.85;;;17.98;;
56657;SDS011;42530;52.240;19.354;2022-10-16T00:31:49;21.38;;;18.52;;
56657;SDS011;42530;52.240;19.354;2022-10-16T00:34:14;18.88;;;17.00;;
56657;SDS011;42530;52.240;19.354;2022-10-16T00:36:40;18.63;;;16.83;;
56657;SDS011;42530;52.240;19.354;2022-10-16T00:39:05;19.40;;;17.60;;
56657;SDS011;42530;52.240;19.354;2022-10-16T00:41:31;19.00;;;17.35;;
56657;SDS011;42530;52.240;19.354;2022-10-16T00:43:59;20.25;;;18.20;;
56657;SDS011;42530;52.240;19.354;2022-10-16T00:46:27;18.00;;;16.20;;
56657;SDS011;42530;52.240;19.354;2022-10-16T00:49:15;18.58;;;16.83;;
56657;SDS011;42530;52.240;19.354;2022-10-16T00:51:50;20.45;;;18.55;;
56657;SDS011;42530;52.240;19.354;2022-10-16T00:54:25;18.30;;;16.77;;
56657;SDS011;42530;52.240;19.354;2022-10-16T00:56:53;17.95;;;16.15;;
56657;SDS011;42530;52.240;19.354;2022-10-16T00:59:23;18.73;;;16.92;;
56657;SDS011;42530;52.240;19.354;2022-10-16T01:01:51;20.70;;;18.80;;
56657;SDS011;42530;52.240;19.354;2022-10-16T01:04:18;19.10;;;17.35;;
56657;SDS011;42530;52.240;19.354;2022-10-16T01:20:13;19.58;;;17.40;;
56657;SDS011;42530;52.240;19.354;2022-10-16T01:26:01;24.85;;;18.15;;
56657;SDS011;42530;52.240;19.354;2022-10-16T01:28:45;19.35;;;17.45;;
56657;SDS011;42530;52.240;19.354;2022-10-16T01:31:11;20.42;;;18.45;;
56657;SDS011;42530;52.240;19.354;2022-10-16T01:33:44;19.95;;;18.15;;
56657;SDS011;42530;52.240;19.354;2022-10-16T01:38:44;19.10;;;17.40;;
56657;SDS011;42530;52.240;19.354;2022-10-16T01:41:20;19.17;;;17.27;;
56657;SDS011;42530;52.240;19.354;2022-10-16T01:43:53;22.05;;;18.35;;
56657;SDS011;42530;52.240;19.354;2022-10-16T01:46:24;20.23;;;18.20;;
56657;SDS011;42530;52.240;19.354;2022-10-16T01:48:50;20.85;;;18.42;;
56657;SDS011;42530;52.240;19.354;2022-10-16T01:51:17;20.60;;;18.67;;
56657;SDS011;42530;52.240;19.354;2022-10-16T01:53:49;21.52;;;19.05;;
56657;SDS011;42530;52.240;19.354;2022-10-16T01:56:19;20.70;;;18.60;;
56657;SDS011;42530;52.240;19.354;2022-10-16T01:58:49;20.45;;;18.52;;
56657;SDS011;42530;52.240;19.354;2022-10-16T02:01:20;20.48;;;18.55;;
56657;SDS011;42530;52.240;19.354;2022-10-16T02:03:49;21.05;;;18.95;;
56657;SDS011;42530;52.240;19.354;2022-10-16T02:06:19;21.50;;;19.33;;
56657;SDS011;42530;52.240;19.354;2022-10-16T02:08:45;20.98;;;18.80;;
56657;SDS011;42530;52.240;19.354;2022-10-16T02:11:11;22.48;;;19.00;;
56657;SDS011;42530;52.240;19.354;2022-10-16T02:13:48;22.05;;;19.80;;
56657;SDS011;42530;52.240;19.354;2022-10-16T02:16:16;19.58;;;17.90;;
56657;SDS011;42530;52.240;19.354;2022-10-16T02:18:42;22.50;;;20.52;;
56657;SDS011;42530;52.240;19.354;2022-10-16T02:21:43;21.10;;;19.13;;
56657;SDS011;42530;52.240;19.354;2022-10-16T02:26:51;21.25;;;18.98;;
56657;SDS011;42530;52.240;19.354;2022-10-16T02:29:22;20.10;;;18.13;;
56657;SDS011;42530;52.240;19.354;2022-10-16T02:31:52;21.25;;;19.13;;
56657;SDS011;42530;52.240;19.354;2022-10-16T02:34:24;18.67;;;16.77;;
56657;SDS011;42530;52.240;19.354;2022-10-16T02:36:51;16.73;;;15.13;;
56657;SDS011;42530;52.240;19.354;2022-10-16T02:39:18;20.50;;;18.50;;
56657;SDS011;42530;52.240;19.354;2022-10-16T02:41:45;21.33;;;19.23;;
56657;SDS011;42530;52.240;19.354;2022-10-16T02:44:11;18.65;;;17.20;;
56657;SDS011;42530;52.240;19.354;2022-10-16T02:46:36;17.60;;;16.00;;
56657;SDS011;42530;52.240;19.354;2022-10-16T02:49:02;19.15;;;17.35;;
56657;SDS011;42530;52.240;19.354;2022-10-16T02:51:27;18.88;;;17.05;;
56657;SDS011;42530;52.240;19.354;2022-10-16T02:53:53;19.23;;;17.33;;
56657;SDS011;42530;52.240;19.354;2022-10-16T02:56:18;19.67;;;17.98;;
56657;SDS011;42530;52.240;19.354;2022-10-16T02:58:44;19.90;;;17.58;;
56657;SDS011;42530;52.240;19.354;2022-10-16T03:01:09;19.38;;;17.45;;
56657;SDS011;42530;52.240;19.354;2022-10-16T03:03:37;19.67;;;17.92;;
56657;SDS011;42530;52.240;19.354;2022-10-16T03:06:03;18.50;;;16.88;;
56657;SDS011;42530;52.240;19.354;2022-10-16T03:08:28;20.98;;;18.83;;
56657;SDS011;42530;52.240;19.354;2022-10-16T03:10:54;19.17;;;17.42;;
56657;SDS011;42530;52.240;19.354;2022-10-16T03:13:20;19.58;;;17.85;;
56657;SDS011;42530;52.240;19.354;2022-10-16T03:15:46;19.13;;;17.52;;
56657;SDS011;42530;52.240;19.354;2022-10-16T03:18:11;21.70;;;19.58;;
56657;SDS011;42530;52.240;19.354;2022-10-16T03:20:37;17.95;;;16.33;;
56657;SDS011;42530;52.240;19.354;2022-10-16T03:23:02;20.05;;;18.05;;
56657;SDS011;42530;52.240;19.354;2022-10-16T03:25:28;19.50;;;17.63;;
56657;SDS011;42530;52.240;19.354;2022-10-16T03:27:53;19.95;;;18.05;;
56657;SDS011;42530;52.240;19.354;2022-10-16T03:30:19;18.90;;;17.10;;
56657;SDS011;42530;52.240;19.354;2022-10-16T03:32:44;18.00;;;16.08;;
56657;SDS011;42530;52.240;19.354;2022-10-16T03:35:10;20.45;;;18.65;;
56657;SDS011;42530;52.240;19.354;2022-10-16T03:37:36;17.85;;;16.25;;
56657;SDS011;42530;52.240;19.354;2022-10-16T03:40:02;17.63;;;15.85;;
56657;SDS011;42530;52.240;19.354;2022-10-16T03:42:28;17.80;;;16.02;;
56657;SDS011;42530;52.240;19.354;2022-10-16T03:44:54;18.15;;;16.30;;
56657;SDS011;42530;52.240;19.354;2022-10-16T03:47:19;17.75;;;16.08;;
56657;SDS011;42530;52.240;19.354;2022-10-16T03:49:47;18.55;;;16.73;;
56657;SDS011;42530;52.240;19.354;2022-10-16T03:52:13;17.55;;;15.75;;
56657;SDS011;42530;52.240;19.354;2022-10-16T03:54:39;16.83;;;15.27;;
56657;SDS011;42530;52.240;19.354;2022-10-16T03:57:04;17.95;;;15.30;;
56657;SDS011;42530;52.240;19.354;2022-10-16T03:59:30;18.95;;;16.92;;
56657;SDS011;42530;52.240;19.354;2022-10-16T04:01:56;15.73;;;14.27;;
56657;SDS011;42530;52.240;19.354;2022-10-16T04:04:21;16.08;;;14.63;;
56657;SDS011;42530;52.240;19.354;2022-10-16T04:06:47;17.30;;;15.70;;
56657;SDS011;42530;52.240;19.354;2022-10-16T04:09:12;17.38;;;15.73;;
56657;SDS011;42530;52.240;19.354;2022-10-16T04:11:38;17.63;;;15.80;;
56657;SDS011;42530;52.240;19.354;2022-10-16T04:14:04;16.75;;;15.15;;
56657;SDS011;42530;52.240;19.354;2022-10-16T04:16:29;16.48;;;14.90;;
56657;SDS011;42530;52.240;19.354;2022-10-16T04:18:55;18.35;;;16.80;;
56657;SDS011;42530;52.240;19.354;2022-10-16T04:21:20;18.17;;;16.42;;
56657;SDS011;42530;52.240;19.354;2022-10-16T04:23:46;18.83;;;16.80;;
56657;SDS011;42530;52.240;19.354;2022-10-16T04:26:12;16.85;;;15.27;;
56657;SDS011;42530;52.240;19.354;2022-10-16T04:28:37;16.02;;;14.52;;
56657;SDS011;42530;52.240;19.354;2022-10-16T04:31:06;16.45;;;14.82;;
56657;SDS011;42530;52.240;19.354;2022-10-16T04:33:32;18.20;;;16.45;;
56657;SDS011;42530;52.240;19.354;2022-10-16T04:35:58;16.77;;;15.18;;
56657;SDS011;42530;52.240;19.354;2022-10-16T04:38:25;17.95;;;16.10;;
56657;SDS011;42530;52.240;19.354;2022-10-16T04:40:51;16.27;;;14.60;;
56657;SDS011;42530;52.240;19.354;2022-10-16T04:43:17;18.05;;;16.38;;
56657;SDS011;42530;52.240;19.354;2022-10-16T04:45:43;16.13;;;14.80;;
56657;SDS011;42530;52.240;19.354;2022-10-16T04:48:09;17.60;;;15.32;;
56657;SDS011;42530;52.240;19.354;2022-10-16T04:50:35;19.80;;;17.80;;
56657;SDS011;42530;52.240;19.354;2022-10-16T04:53:00;15.95;;;14.35;;
56657;SDS011;42530;52.240;19.354;2022-10-16T04:55:26;17.73;;;15.82;;
56657;SDS011;42530;52.240;19.354;2022-10-16T04:57:51;17.77;;;15.82;;
56657;SDS011;42530;52.240;19.354;2022-10-16T05:00:17;17.30;;;14.77;;
56657;SDS011;42530;52.240;19.354;2022-10-16T05:02:42;16.00;;;14.50;;
56657;SDS011;42530;52.240;19.354;2022-10-16T05:05:08;15.32;;;14.00;;
56657;SDS011;42530;52.240;19.354;2022-10-16T05:07:34;17.17;;;14.77;;
56657;SDS011;42530;52.240;19.354;2022-10-16T05:09:59;18.73;;;16.83;;
56657;SDS011;42530;52.240;19.354;2022-10-16T05:12:25;16.13;;;14.45;;
56657;SDS011;42530;52.240;19.354;2022-10-16T05:14:50;15.45;;;13.82;;
56657;SDS011;42530;52.240;19.354;2022-10-16T05:17:16;17.63;;;15.77;;
56657;SDS011;42530;52.240;19.354;2022-10-16T05:19:41;18.23;;;16.40;;
56657;SDS011;42530;52.240;19.354;2022-10-16T05:22:07;17.83;;;15.10;;
56657;SDS011;42530;52.240;19.354;2022-10-16T05:24:32;16.88;;;15.18;;
56657;SDS011;42530;52.240;19.354;2022-10-16T05:26:58;19.25;;;15.57;;
56657;SDS011;42530;52.240;19.354;2022-10-16T05:29:24;18.58;;;16.67;;
56657;SDS011;42530;52.240;19.354;2022-10-16T05:31:50;19.80;;;17.10;;
56657;SDS011;42530;52.240;19.354;2022-10-16T05:34:17;22.25;;;17.30;;
56657;SDS011;42530;52.240;19.354;2022-10-16T05:36:42;21.08;;;18.88;;
56657;SDS011;42530;52.240;19.354;2022-10-16T05:39:10;21.42;;;16.48;;
56657;SDS011;42530;52.240;19.354;2022-10-16T05:41:36;20.42;;;16.15;;
56657;SDS011;42530;52.240;19.354;2022-10-16T05:44:05;17.27;;;15.63;;
56657;SDS011;42530;52.240;19.354;2022-10-16T05:46:31;17.67;;;15.35;;
56657;SDS011;42530;52.240;19.354;2022-10-16T05:48:57;17.40;;;15.80;;
56657;SDS011;42530;52.240;19.354;2022-10-16T05:51:23;28.38;;;25.52;;
56657;SDS011;42530;52.240;19.354;2022-10-16T05:53:48;27.55;;;24.75;;
56657;SDS011;42530;52.240;19.354;2022-10-16T05:56:14;25.63;;;23.23;;
56657;SDS011;42530;52.240;19.354;2022-10-16T05:58:40;26.60;;;24.00;;
56657;SDS011;42530;52.240;19.354;2022-10-16T06:01:08;21.60;;;19.70;;
56657;SDS011;42530;52.240;19.354;2022-10-16T06:03:36;23.15;;;18.65;;
56657;SDS011;42530;52.240;19.354;2022-10-16T06:06:13;18.48;;;16.58;;
56657;SDS011;42530;52.240;19.354;2022-10-16T06:08:40;20.70;;;17.88;;
56657;SDS011;42530;52.240;19.354;2022-10-16T06:11:07;19.10;;;17.10;;
56657;SDS011;42530;52.240;19.354;2022-10-16T06:13:34;18.88;;;16.80;;
56657;SDS011;42530;52.240;19.354;2022-10-16T06:16:00;21.20;;;18.45;;
56657;SDS011;42530;52.240;19.354;2022-10-16T06:18:27;19.40;;;17.42;;
56657;SDS011;42530;52.240;19.354;2022-10-16T06:20:54;16.40;;;13.55;;
56657;SDS011;42530;52.240;19.354;2022-10-16T06:23:20;19.08;;;17.23;;
56657;SDS011;42530;52.240;19.354;2022-10-16T06:25:45;18.90;;;16.73;;
56657;SDS011;42530;52.240;19.354;2022-10-16T06:28:12;19.67;;;17.50;;
56657;SDS011;42530;52.240;19.354;2022-10-16T06:30:39;19.58;;;17.45;;
56657;SDS011;42530;52.240;19.354;2022-10-16T06:33:04;19.27;;;17.23;;
56657;SDS011;42530;52.240;19.354;2022-10-16T06:35:30;18.02;;;16.13;;
56657;SDS011;42530;52.240;19.354;2022-10-16T06:37:57;18.23;;;16.48;;
56657;SDS011;42530;52.240;19.354;2022-10-16T06:40:23;18.10;;;15.93;;
56657;SDS011;42530;52.240;19.354;2022-10-16T06:42:48;17.20;;;15.32;;
56657;SDS011;42530;52.240;19.354;2022-10-16T06:45:14;22.50;;;20.08;;
56657;SDS011;42530;52.240;19.354;2022-10-16T06:47:39;18.02;;;16.15;;
56657;SDS011;42530;52.240;19.354;2022-10-16T06:50:05;24.30;;;18.58;;
56657;SDS011;42530;52.240;19.354;2022-10-16T06:52:33;17.42;;;15.70;;
56657;SDS011;42530;52.240;19.354;2022-10-16T06:54:59;21.45;;;18.65;;
56657;SDS011;42530;52.240;19.354;2022-10-16T06:57:24;20.83;;;18.13;;
56657;SDS011;42530;52.240;19.354;2022-10-16T06:59:50;20.33;;;18.25;;
56657;SDS011;42530;52.240;19.354;2022-10-16T07:02:15;22.35;;;20.20;;
56657;SDS011;42530;52.240;19.354;2022-10-16T07:04:41;24.58;;;22.00;;
56657;SDS011;42530;52.240;19.354;2022-10-16T07:07:06;23.30;;;20.85;;
56657;SDS011;42530;52.240;19.354;2022-10-16T07:09:32;20.65;;;18.50;;
56657;SDS011;42530;52.240;19.354;2022-10-16T07:11:57;22.23;;;17.88;;
56657;SDS011;42530;52.240;19.354;2022-10-16T07:14:23;22.33;;;19.92;;
56657;SDS011;42530;52.240;19.354;2022-10-16T07:16:48;20.38;;;18.38;;
56657;SDS011;42530;52.240;19.354;2022-10-16T07:19:14;19.40;;;17.50;;
56657;SDS011;42530;52.240;19.354;2022-10-16T07:21:42;20.00;;;17.45;;
56657;SDS011;42530;52.240;19.354;2022-10-16T07:24:11;19.25;;;17.10;;
56657;SDS011;42530;52.240;19.354;2022-10-16T07:26:39;18.83;;;16.88;;
56657;SDS011;42530;52.240;19.354;2022-10-16T07:29:16;20.02;;;17.83;;
56657;SDS011;42530;52.240;19.354;2022-10-16T07:31:46;21.30;;;16.00;;
56657;SDS011;42530;52.240;19.354;2022-10-16T07:34:13;17.83;;;15.75;;
56657;SDS011;42530;52.240;19.354;2022-10-16T07:36:41;20.50;;;16.13;;
56657;SDS011;42530;52.240;19.354;2022-10-16T07:39:06;18.73;;;16.83;;
56657;SDS011;42530;52.240;19.354;2022-10-16T07:41:32;19.33;;;15.55;;
56657;SDS011;42530;52.240;19.354;2022-10-16T07:44:01;20.40;;;15.55;;
56657;SDS011;42530;52.240;19.354;2022-10-16T07:46:28;15.73;;;13.57;;
56657;SDS011;42530;52.240;19.354;2022-10-16T07:48:53;18.30;;;16.48;;
56657;SDS011;42530;52.240;19.354;2022-10-16T07:51:20;18.80;;;16.80;;
56657;SDS011;42530;52.240;19.354;2022-10-16T07:53:47;20.13;;;17.52;;
56657;SDS011;42530;52.240;19.354;2022-10-16T07:56:13;17.15;;;15.30;;
56657;SDS011;42530;52.240;19.354;2022-10-16T07:58:39;20.95;;;16.55;;
56657;SDS011;42530;52.240;19.354;2022-10-16T08:01:09;18.45;;;16.67;;
56657;SDS011;42530;52.240;19.354;2022-10-16T08:03:38;18.60;;;16.45;;
56657;SDS011;42530;52.240;19.354;2022-10-16T08:06:07;23.42;;;17.33;;
56657;SDS011;42530;52.240;19.354;2022-10-16T08:08:32;18.35;;;16.50;;
56657;SDS011;42530;52.240;19.354;2022-10-16T08:10:58;19.35;;;15.02;;
56657;SDS011;42530;52.240;19.354;2022-10-16T08:13:24;17.30;;;15.60;;
56657;SDS011;42530;52.240;19.354;2022-10-16T08:15:49;17.80;;;16.05;;
56657;SDS011;42530;52.240;19.354;2022-10-16T08:18:15;19.35;;;17.35;;
56657;SDS011;42530;52.240;19.354;2022-10-16T08:20:41;16.67;;;14.98;;
56657;SDS011;42530;52.240;19.354;2022-10-16T08:23:07;17.05;;;15.30;;
56657;SDS011;42530;52.240;19.354;2022-10-16T08:25:35;17.73;;;16.02;;
56657;SDS011;42530;52.240;19.354;2022-10-16T08:28:06;17.55;;;15.75;;
56657;SDS011;42530;52.240;19.354;2022-10-16T08:30:33;21.08;;;16.05;;
56657;SDS011;42530;52.240;19.354;2022-10-16T08:32:59;16.88;;;15.15;;
56657;SDS011;42530;52.240;19.354;2022-10-16T08:35:25;18.52;;;16.80;;
56657;SDS011;42530;52.240;19.354;2022-10-16T08:37:50;16.58;;;14.88;;
56657;SDS011;42530;52.240;19.354;2022-10-16T08:40:19;17.27;;;15.57;;
56657;SDS011;42530;52.240;19.354;2022-10-16T08:46:04;16.90;;;14.43;;
56657;SDS011;42530;52.240;19.354;2022-10-16T08:48:43;17.50;;;15.68;;
56657;SDS011;42530;52.240;19.354;2022-10-16T08:51:24;16.30;;;14.63;;
56657;SDS011;42530;52.240;19.354;2022-10-16T08:53:56;17.88;;;14.65;;
56657;SDS011;42530;52.240;19.354;2022-10-16T08:56:24;16.60;;;14.98;;
56657;SDS011;42530;52.240;19.354;2022-10-16T08:58:51;13.50;;;11.57;;
56657;SDS011;42530;52.240;19.354;2022-10-16T09:01:18;15.45;;;14.00;;
56657;SDS011;42530;52.240;19.354;2022-10-16T09:06:25;17.27;;;13.73;;
56657;SDS011;42530;52.240;19.354;2022-10-16T09:09:25;14.00;;;12.60;;
56657;SDS011;42530;52.240;19.354;2022-10-16T09:17:14;14.43;;;13.05;;
56657;SDS011;42530;52.240;19.354;2022-10-16T09:22:45;13.57;;;12.27;;
56657;SDS011;42530;52.240;19.354;2022-10-16T09:25:12;15.75;;;13.05;;
56657;SDS011;42530;52.240;19.354;2022-10-16T09:27:39;12.65;;;11.55;;
56657;SDS011;42530;52.240;19.354;2022-10-16T09:30:15;13.40;;;12.10;;
56657;SDS011;42530;52.240;19.354;2022-10-16T09:32:43;12.43;;;10.70;;
56657;SDS011;42530;52.240;19.354;2022-10-16T09:35:11;15.10;;;13.55;;
56657;SDS011;42530;52.240;19.354;2022-10-16T09:37:39;12.27;;;11.07;;
56657;SDS011;42530;52.240;19.354;2022-10-16T09:40:12;11.95;;;10.80;;
56657;SDS011;42530;52.240;19.354;2022-10-16T09:46:08;11.68;;;10.57;;
56657;SDS011;42530;52.240;19.354;2022-10-16T09:48:48;11.45;;;10.05;;
56657;SDS011;42530;52.240;19.354;2022-10-16T09:53:53;12.20;;;11.07;;
56657;SDS011;42530;52.240;19.354;2022-10-16T09:56:33;10.43;;;9.37;;
56657;SDS011;42530;52.240;19.354;2022-10-16T09:59:08;13.68;;;11.52;;
56657;SDS011;42530;52.240;19.354;2022-10-16T10:01:38;12.82;;;11.65;;
56657;SDS011;42530;52.240;19.354;2022-10-16T10:04:06;11.93;;;10.63;;
56657;SDS011;42530;52.240;19.354;2022-10-16T10:06:51;10.45;;;9.55;;
56657;SDS011;42530;52.240;19.354;2022-10-16T10:09:23;11.95;;;10.75;;
56657;SDS011;42530;52.240;19.354;2022-10-16T10:14:20;13.07;;;11.70;;
56657;SDS011;42530;52.240;19.354;2022-10-16T10:16:46;11.10;;;9.20;;
56657;SDS011;42530;52.240;19.354;2022-10-16T10:19:22;12.50;;;11.07;;
56657;SDS011;42530;52.240;19.354;2022-10-16T10:21:48;12.48;;;11.25;;
56657;SDS011;42530;52.240;19.354;2022-10-16T10:24:16;12.40;;;11.23;;
56657;SDS011;42530;52.240;19.354;2022-10-16T10:27:29;12.30;;;11.13;;
56657;SDS011;42530;52.240;19.354;2022-10-16T10:35:31;10.50;;;9.50;;
56657;SDS011;42530;52.240;19.354;2022-10-16T10:44:07;12.80;;;11.55;;
56657;SDS011;42530;52.240;19.354;2022-10-16T10:46:56;11.68;;;10.48;;
56657;SDS011;42530;52.240;19.354;2022-10-16T10:55:00;12.15;;;11.00;;
56657;SDS011;42530;52.240;19.354;2022-10-16T10:57:50;11.60;;;10.60;;
56657;SDS011;42530;52.240;19.354;2022-10-16T11:05:59;12.00;;;11.00;;
56657;SDS011;42530;52.240;19.354;2022-10-16T11:11:18;11.75;;;10.63;;
56657;SDS011;42530;52.240;19.354;2022-10-16T11:13:54;12.77;;;11.55;;
56657;SDS011;42530;52.240;19.354;2022-10-16T11:21:24;12.60;;;11.50;;
56657;SDS011;42530;52.240;19.354;2022-10-16T11:24:15;13.27;;;11.98;;
56657;SDS011;42530;52.240;19.354;2022-10-16T11:26:42;11.77;;;10.77;;
56657;SDS011;42530;52.240;19.354;2022-10-16T11:29:29;12.85;;;11.40;;
56657;SDS011;42530;52.240;19.354;2022-10-16T11:31:57;10.80;;;9.90;;
56657;SDS011;42530;52.240;19.354;2022-10-16T11:37:05;10.45;;;9.45;;
56657;SDS011;42530;52.240;19.354;2022-10-16T11:39:36;12.85;;;10.07;;
56657;SDS011;42530;52.240;19.354;2022-10-16T11:50:45;9.25;;;8.30;;
56657;SDS011;42530;52.240;19.354;2022-10-16T11:55:49;11.20;;;10.15;;
56657;SDS011;42530;52.240;19.354;2022-10-16T12:04:06;14.23;;;12.77;;
56657;SDS011;42530;52.240;19.354;2022-10-16T12:08:59;10.57;;;9.52;;
56657;SDS011;42530;52.240;19.354;2022-10-16T12:13:51;12.27;;;11.15;;
56657;SDS011;42530;52.240;19.354;2022-10-16T12:16:28;14.35;;;13.13;;
56657;SDS011;42530;52.240;19.354;2022-10-16T12:21:50;13.50;;;12.23;;
56657;SDS011;42530;52.240;19.354;2022-10-16T12:27:03;11.38;;;10.27;;
56657;SDS011;42530;52.240;19.354;2022-10-16T12:29:37;13.15;;;11.63;;
56657;SDS011;42530;52.240;19.354;2022-10-16T12:32:05;12.27;;;11.27;;
56657;SDS011;42530;52.240;19.354;2022-10-16T12:34:50;13.02;;;11.80;;
56657;SDS011;42530;52.240;19.354;2022-10-16T12:39:56;14.00;;;11.80;;
56657;SDS011;42530;52.240;19.354;2022-10-16T12:44:52;12.02;;;11.05;;
56657;SDS011;42530;52.240;19.354;2022-10-16T12:47:23;12.27;;;10.75;;
56657;SDS011;42530;52.240;19.354;2022-10-16T12:49:55;10.82;;;9.90;;
56657;SDS011;42530;52.240;19.354;2022-10-16T12:52:37;10.90;;;10.00;;
56657;SDS011;42530;52.240;19.354;2022-10-16T12:55:04;11.88;;;10.68;;
56657;SDS011;42530;52.240;19.354;2022-10-16T13:00:25;12.05;;;10.75;;
56657;SDS011;42530;52.240;19.354;2022-10-16T13:14:33;12.95;;;11.65;;
56657;SDS011;42530;52.240;19.354;2022-10-16T13:28:30;12.82;;;11.60;;
56657;SDS011;42530;52.240;19.354;2022-10-16T13:30:58;14.23;;;12.73;;
56657;SDS011;42530;52.240;19.354;2022-10-16T13:33:32;14.07;;;12.77;;
56657;SDS011;42530;52.240;19.354;2022-10-16T13:36:04;13.10;;;11.80;;
56657;SDS011;42530;52.240;19.354;2022-10-16T13:38:32;15.05;;;11.45;;
56657;SDS011;42530;52.240;19.354;2022-10-16T13:41:00;18.48;;;11.35;;
56657;SDS011;42530;52.240;19.354;2022-10-16T13:46:06;15.00;;;12.45;;
56657;SDS011;42530;52.240;19.354;2022-10-16T13:48:36;10.60;;;9.60;;
56657;SDS011;42530;52.240;19.354;2022-10-16T13:53:36;11.02;;;10.02;;
56657;SDS011;42530;52.240;19.354;2022-10-16T13:56:03;10.70;;;9.80;;
56657;SDS011;42530;52.240;19.354;2022-10-16T13:58:30;10.80;;;9.80;;
56657;SDS011;42530;52.240;19.354;2022-10-16T14:01:00;13.25;;;11.95;;
56657;SDS011;42530;52.240;19.354;2022-10-16T14:03:28;10.90;;;9.93;;
56657;SDS011;42530;52.240;19.354;2022-10-16T14:05:56;12.73;;;11.27;;
56657;SDS011;42530;52.240;19.354;2022-10-16T14:08:25;12.73;;;11.35;;
56657;SDS011;42530;52.240;19.354;2022-10-16T14:10:54;12.02;;;10.73;;
56657;SDS011;42530;52.240;19.354;2022-10-16T14:13:27;12.13;;;10.95;;
56657;SDS011;42530;52.240;19.354;2022-10-16T14:15:53;12.35;;;11.15;;
56657;SDS011;42530;52.240;19.354;2022-10-16T14:18:21;13.38;;;11.82;;
56657;SDS011;42530;52.240;19.354;2022-10-16T14:20:50;18.08;;;14.85;;
56657;SDS011;42530;52.240;19.354;2022-10-16T14:23:29;13.63;;;12.32;;
56657;SDS011;42530;52.240;19.354;2022-10-16T14:28:34;16.67;;;14.43;;
56657;SDS011;42530;52.240;19.354;2022-10-16T14:31:00;12.73;;;11.38;;
56657;SDS011;42530;52.240;19.354;2022-10-16T14:36:13;13.07;;;11.77;;
56657;SDS011;42530;52.240;19.354;2022-10-16T14:38:48;16.33;;;14.25;;
56657;SDS011;42530;52.240;19.354;2022-10-16T14:41:23;16.02;;;14.45;;
56657;SDS011;42530;52.240;19.354;2022-10-16T14:43:56;14.45;;;12.95;;
56657;SDS011;42530;52.240;19.354;2022-10-16T14:46:34;13.43;;;12.20;;
56657;SDS011;42530;52.240;19.354;2022-10-16T14:49:03;13.43;;;12.05;;
56657;SDS011;42530;52.240;19.354;2022-10-16T14:51:36;12.60;;;11.10;;
56657;SDS011;42530;52.240;19.354;2022-10-16T14:54:03;13.57;;;12.18;;
56657;SDS011;42530;52.240;19.354;2022-10-16T14:56:42;16.45;;;11.98;;
56657;SDS011;42530;52.240;19.354;2022-10-16T14:59:35;13.45;;;12.05;;
56657;SDS011;42530;52.240;19.354;2022-10-16T15:02:02;13.52;;;12.32;;
56657;SDS011;42530;52.240;19.354;2022-10-16T15:04:43;13.45;;;12.00;;
56657;SDS011;42530;52.240;19.354;2022-10-16T15:07:09;12.25;;;11.18;;
56657;SDS011;42530;52.240;19.354;2022-10-16T15:09:34;12.52;;;11.32;;
56657;SDS011;42530;52.240;19.354;2022-10-16T15:12:02;13.57;;;12.18;;
56657;SDS011;42530;52.240;19.354;2022-10-16T15:14:28;12.25;;;11.07;;
56657;SDS011;42530;52.240;19.354;2022-10-16T15:16:53;18.88;;;13.48;;
56657;SDS011;42530;52.240;19.354;2022-10-16T15:19:19;13.35;;;12.23;;
56657;SDS011;42530;52.240;19.354;2022-10-16T15:21:44;17.00;;;14.52;;
56657;SDS011;42530;52.240;19.354;2022-10-16T15:24:13;15.60;;;14.07;;
56657;SDS011;42530;52.240;19.354;2022-10-16T15:26:39;14.35;;;13.02;;
56657;SDS011;42530;52.240;19.354;2022-10-16T15:29:05;16.17;;;12.95;;
56657;SDS011;42530;52.240;19.354;2022-10-16T15:31:31;14.93;;;13.40;;
56657;SDS011;42530;52.240;19.354;2022-10-16T15:33:57;17.40;;;15.88;;
56657;SDS011;42530;52.240;19.354;2022-10-16T15:36:30;15.63;;;14.25;;
56657;SDS011;42530;52.240;19.354;2022-10-16T15:39:02;14.02;;;12.35;;
56657;SDS011;42530;52.240;19.354;2022-10-16T15:41:29;16.33;;;14.15;;
56657;SDS011;42530;52.240;19.354;2022-10-16T15:43:54;16.67;;;15.00;;
56657;SDS011;42530;52.240;19.354;2022-10-16T15:46:20;16.20;;;14.52;;
56657;SDS011;42530;52.240;19.354;2022-10-16T15:48:47;19.30;;;17.42;;
56657;SDS011;42530;52.240;19.354;2022-10-16T15:51:14;24.15;;;21.55;;
56657;SDS011;42530;52.240;19.354;2022-10-16T15:53:40;22.38;;;20.00;;
56657;SDS011;42530;52.240;19.354;2022-10-16T15:56:07;23.02;;;20.67;;
56657;SDS011;42530;52.240;19.354;2022-10-16T15:58:34;31.92;;;26.75;;
56657;SDS011;42530;52.240;19.354;2022-10-16T16:01:00;27.98;;;23.15;;
56657;SDS011;42530;52.240;19.354;2022-10-16T16:03:26;23.27;;;20.92;;
56657;SDS011;42530;52.240;19.354;2022-10-16T16:05:53;21.92;;;19.80;;
56657;SDS011;42530;52.240;19.354;2022-10-16T16:08:19;23.35;;;21.10;;
56657;SDS011;42530;52.240;19.354;2022-10-16T16:10:44;25.88;;;21.77;;
56657;SDS011;42530;52.240;19.354;2022-10-16T16:13:10;21.42;;;19.27;;
56657;SDS011;42530;52.240;19.354;2022-10-16T16:15:38;22.17;;;19.95;;
56657;SDS011;42530;52.240;19.354;2022-10-16T16:18:05;21.65;;;19.55;;
56657;SDS011;42530;52.240;19.354;2022-10-16T16:20:31;21.48;;;19.05;;
56657;SDS011;42530;52.240;19.354;2022-10-16T16:22:57;20.48;;;18.45;;
56657;SDS011;42530;52.240;19.354;2022-10-16T16:25:22;22.55;;;20.15;;
56657;SDS011;42530;52.240;19.354;2022-10-16T16:27:48;22.42;;;20.25;;
56657;SDS011;42530;52.240;19.354;2022-10-16T16:30:14;21.77;;;19.67;;
56657;SDS011;42530;52.240;19.354;2022-10-16T16:32:39;21.23;;;18.85;;
56657;SDS011;42530;52.240;19.354;2022-10-16T16:35:05;21.48;;;19.45;;
56657;SDS011;42530;52.240;19.354;2022-10-16T16:37:30;25.20;;;22.60;;
56657;SDS011;42530;52.240;19.354;2022-10-16T16:39:56;25.92;;;22.73;;
56657;SDS011;42530;52.240;19.354;2022-10-16T16:42:25;30.02;;;24.70;;